Time;durP1;ratioP1;P1;durP2;ratioP2;P2;SDS_P1;SDS_P2;PMS_P1;PMS_P2;Temp;Humidity;BMP_temperature;BMP_pressure;BME280_temperature;BME280_humidity;BME280_pressure;Samples;Min_cycle;Max_cycle;Signal;HPM_P1;HPM_P2
2024/01/13 00:00:48;;;;;;;13.90;3.42;;;3.80;99.90;;;;;;5057935;28;20116;-76
2024/01/13 00:03:14;;;;;;;10.75;3.30;;;3.80;99.90;;;;;;5051480;28;20056;-75
2024/01/13 00:05:40;;;;;;;10.55;3.38;;;3.70;99.90;;;;;;5051562;28;20040;-75
2024/01/13 00:08:05;;;;;;;12.88;4.20;;;3.70;99.90;;;;;;5057461;28;20359;-75
2024/01/13 00:10:32;;;;;;;14.05;3.88;;;3.70;99.90;;;;;;5057800;28;20060;-75
2024/01/13 00:12:57;;;;;;;15.18;3.60;;;3.70;99.90;;;;;;5052765;28;20053;-75
2024/01/13 00:15:23;;;;;;;16.92;4.00;;;3.80;99.90;;;;;;5034206;28;20040;-75
2024/01/13 00:17:48;;;;;;;17.45;4.63;;;3.90;99.90;;;;;;5055122;28;20115;-76
2024/01/13 00:20:14;;;;;;;18.60;3.78;;;3.70;99.90;;;;;;5053045;28;20076;-76
2024/01/13 00:22:47;;;;;;;15.07;4.35;;;3.70;99.90;;;;;;5034033;28;20056;-76
2024/01/13 00:25:14;;;;;;;14.73;4.25;;;3.70;99.90;;;;;;5087915;28;20049;-76
2024/01/13 00:27:40;;;;;;;13.07;4.38;;;3.70;99.90;;;;;;5070127;28;20119;-76
2024/01/13 00:30:07;;;;;;;12.27;4.07;;;4.00;99.90;;;;;;5069751;28;20124;-77
2024/01/13 00:32:33;;;;;;;11.23;3.80;;;3.60;99.90;;;;;;5070640;28;20537;-76
2024/01/13 00:34:58;;;;;;;11.10;4.20;;;3.70;99.90;;;;;;5070271;28;20119;-77
2024/01/13 00:37:24;;;;;;;13.88;3.97;;;3.70;99.90;;;;;;5069990;28;20044;-77
2024/01/13 00:39:50;;;;;;;8.82;4.03;;;3.70;99.90;;;;;;5102908;28;20068;-76
2024/01/13 00:42:16;;;;;;;9.25;3.92;;;3.80;99.90;;;;;;5071544;28;20044;-76
2024/01/13 00:44:42;;;;;;;7.60;3.60;;;3.70;99.90;;;;;;5070025;28;20055;-76
2024/01/13 00:47:07;;;;;;;10.57;3.40;;;3.70;99.90;;;;;;5053282;28;20040;-76
2024/01/13 00:49:33;;;;;;;8.75;3.75;;;3.70;99.90;;;;;;5069188;28;20051;-76
2024/01/13 00:51:59;;;;;;;7.00;3.30;;;3.20;99.90;;;;;;5069499;28;20382;-76
2024/01/13 00:54:25;;;;;;;9.93;3.40;;;3.70;99.90;;;;;;5070479;28;20048;-76
2024/01/13 00:56:53;;;;;;;4.30;2.70;;;3.90;99.90;;;;;;5069850;28;20352;-76
2024/01/13 00:59:18;;;;;;;7.13;3.25;;;3.90;99.90;;;;;;5070179;28;20485;-76
2024/01/13 01:01:44;;;;;;;8.43;3.50;;;3.80;99.90;;;;;;5069533;28;20107;-76
2024/01/13 01:04:10;;;;;;;7.10;3.03;;;3.70;99.90;;;;;;5069018;28;20044;-76
2024/01/13 01:06:35;;;;;;;7.30;3.22;;;3.80;99.90;;;;;;5070275;28;20036;-76
2024/01/13 01:09:01;;;;;;;7.57;3.10;;;3.80;99.90;;;;;;5070939;28;20442;-76
2024/01/13 01:11:27;;;;;;;9.63;3.00;;;3.70;99.90;;;;;;5103228;28;20124;-76
2024/01/13 01:13:53;;;;;;;10.55;3.30;;;3.80;99.90;;;;;;5069325;28;20184;-76
2024/01/13 01:16:18;;;;;;;10.02;3.40;;;3.70;99.90;;;;;;5070254;28;20040;-76
2024/01/13 01:18:44;;;;;;;10.52;3.60;;;3.70;99.90;;;;;;5069526;28;20036;-76
2024/01/13 01:21:11;;;;;;;8.70;3.15;;;3.70;99.90;;;;;;5069515;28;20053;-76
2024/01/13 01:23:36;;;;;;;12.50;3.60;;;3.80;99.90;;;;;;5033118;28;20049;-76
2024/01/13 01:26:02;;;;;;;8.13;3.30;;;3.70;99.90;;;;;;5070179;28;20367;-76
2024/01/13 01:28:28;;;;;;;10.50;4.10;;;3.70;99.90;;;;;;5070998;28;20036;-76
2024/01/13 01:30:54;;;;;;;9.32;3.40;;;3.70;99.90;;;;;;5070464;28;20040;-76
2024/01/13 01:33:19;;;;;;;9.38;2.95;;;3.70;99.90;;;;;;5052986;28;20037;-75
2024/01/13 01:35:45;;;;;;;9.68;3.13;;;3.60;99.90;;;;;;5069422;28;20053;-75
2024/01/13 01:38:11;;;;;;;10.35;2.97;;;3.60;99.90;;;;;;5069438;28;20090;-75
2024/01/13 01:40:38;;;;;;;6.38;3.15;;;3.60;99.90;;;;;;5069209;28;20076;-76
2024/01/13 01:43:04;;;;;;;7.93;2.85;;;3.60;99.90;;;;;;5068891;28;20048;-76
2024/01/13 01:45:30;;;;;;;7.80;3.00;;;3.50;99.90;;;;;;5068597;28;20130;-76
2024/01/13 01:47:57;;;;;;;10.43;3.10;;;3.50;99.90;;;;;;5069179;28;20094;-77
2024/01/13 01:50:23;;;;;;;11.68;3.60;;;3.50;99.90;;;;;;5061264;28;20084;-76
2024/01/13 01:52:48;;;;;;;9.50;3.35;;;3.50;99.90;;;;;;5072444;28;20064;-76
2024/01/13 01:55:14;;;;;;;11.30;3.45;;;3.50;99.90;;;;;;5072754;28;20099;-75
2024/01/13 01:57:40;;;;;;;9.30;3.38;;;3.50;99.90;;;;;;5074258;28;20094;-76
2024/01/13 02:00:08;;;;;;;7.22;3.25;;;3.50;99.90;;;;;;5039324;28;20355;-75
2024/01/13 02:02:35;;;;;;;8.00;3.00;;;3.50;99.90;;;;;;5073154;28;20059;-75
2024/01/13 02:05:02;;;;;;;7.15;3.05;;;3.60;99.90;;;;;;5071650;28;20041;-76
2024/01/13 02:07:29;;;;;;;7.32;3.60;;;3.60;99.90;;;;;;5058915;28;20418;-76
2024/01/13 02:09:54;;;;;;;12.00;3.47;;;3.60;99.90;;;;;;5073302;28;20527;-76
2024/01/13 02:12:20;;;;;;;7.38;3.20;;;3.90;99.90;;;;;;5072389;28;20123;-76
2024/01/13 02:14:46;;;;;;;8.27;3.28;;;3.60;99.90;;;;;;5073615;28;20048;-76
2024/01/13 02:17:12;;;;;;;13.48;3.47;;;3.60;99.90;;;;;;5073602;28;20249;-76
2024/01/13 02:19:37;;;;;;;9.20;3.30;;;3.60;99.90;;;;;;5055816;28;20040;-76
2024/01/13 02:22:04;;;;;;;7.03;3.40;;;3.60;99.90;;;;;;5073228;28;20044;-76
2024/01/13 02:24:30;;;;;;;6.78;3.47;;;3.60;99.90;;;;;;5072567;28;20060;-76
2024/01/13 02:26:55;;;;;;;9.15;3.35;;;3.60;99.90;;;;;;5072558;28;20052;-76
2024/01/13 02:29:21;;;;;;;9.52;3.47;;;3.60;99.90;;;;;;5072292;28;20664;-76
2024/01/13 02:31:47;;;;;;;12.25;3.33;;;3.60;99.90;;;;;;5072906;28;20047;-76
2024/01/13 02:34:12;;;;;;;9.40;3.22;;;3.60;99.90;;;;;;5072258;28;20041;-76
2024/01/13 02:36:38;;;;;;;5.60;2.88;;;3.60;99.90;;;;;;5072021;28;20044;-76
2024/01/13 02:39:04;;;;;;;8.88;3.20;;;3.60;99.90;;;;;;5055445;28;20102;-77
2024/01/13 02:41:30;;;;;;;8.18;3.67;;;3.60;99.90;;;;;;5072650;28;20044;-75
2024/01/13 02:43:56;;;;;;;6.95;3.78;;;3.60;99.90;;;;;;5072330;28;20051;-76
2024/01/13 02:46:21;;;;;;;12.80;3.42;;;3.60;99.90;;;;;;5071080;28;20092;-76
2024/01/13 02:48:51;;;;;;;16.02;3.42;;;3.50;99.90;;;;;;5055770;28;20043;-76
2024/01/13 02:51:18;;;;;;;7.65;3.58;;;3.60;99.90;;;;;;5059031;28;20123;-76
2024/01/13 02:53:44;;;;;;;6.30;3.25;;;3.60;99.90;;;;;;5055867;28;20119;-76
2024/01/13 02:56:09;;;;;;;9.55;3.03;;;3.50;99.90;;;;;;5051951;28;20116;-76
2024/01/13 02:58:35;;;;;;;7.57;2.63;;;3.70;99.90;;;;;;5069363;28;20055;-77
2024/01/13 03:01:06;;;;;;;9.70;2.90;;;3.60;99.90;;;;;;5065327;28;20466;-76
2024/01/13 03:03:35;;;;;;;8.63;2.67;;;3.50;99.90;;;;;;5063441;28;20094;-76
2024/01/13 03:06:03;;;;;;;5.68;2.70;;;3.60;99.90;;;;;;5106126;28;20040;-77
2024/01/13 03:08:28;;;;;;;4.82;2.35;;;3.60;99.90;;;;;;5070603;28;20915;-76
2024/01/13 03:10:54;;;;;;;5.50;2.45;;;3.70;99.90;;;;;;5055317;28;20052;-76
2024/01/13 03:13:20;;;;;;;7.25;2.10;;;3.60;99.90;;;;;;5053997;28;20045;-76
2024/01/13 03:15:46;;;;;;;4.72;2.25;;;3.60;99.90;;;;;;5071017;28;20461;-77
2024/01/13 03:18:11;;;;;;;4.30;2.40;;;3.60;99.90;;;;;;5071165;28;20032;-76
2024/01/13 03:20:37;;;;;;;4.60;1.80;;;3.60;99.90;;;;;;5071764;28;20416;-76
2024/01/13 03:23:03;;;;;;;4.82;2.08;;;3.60;99.90;;;;;;5072074;28;20036;-76
2024/01/13 03:25:29;;;;;;;4.05;2.38;;;3.60;99.90;;;;;;5071599;28;20060;-77
2024/01/13 03:27:54;;;;;;;5.28;1.70;;;3.60;99.90;;;;;;5071269;28;20089;-77
2024/01/13 03:30:20;;;;;;;5.22;1.83;;;3.60;99.90;;;;;;5070193;28;20124;-77
2024/01/13 03:32:45;;;;;;;7.28;1.90;;;3.50;99.90;;;;;;5058024;28;20051;-77
2024/01/13 03:35:11;;;;;;;4.65;1.90;;;3.60;99.90;;;;;;5071612;28;20049;-77
2024/01/13 03:37:37;;;;;;;6.93;2.40;;;3.60;99.90;;;;;;5070176;28;20040;-76
2024/01/13 03:40:03;;;;;;;8.32;2.20;;;3.60;99.90;;;;;;5053885;28;20040;-77
2024/01/13 03:42:28;;;;;;;6.32;2.40;;;3.60;99.90;;;;;;5071466;28;20048;-77
2024/01/13 03:44:54;;;;;;;9.13;2.50;;;3.70;99.90;;;;;;5071526;28;20047;-77
2024/01/13 03:47:22;;;;;;;7.75;2.30;;;3.60;99.90;;;;;;5064967;28;20040;-77
2024/01/13 03:49:48;;;;;;;8.25;2.88;;;3.60;99.90;;;;;;5095275;28;20418;-76
2024/01/13 03:52:13;;;;;;;6.22;3.03;;;3.60;99.90;;;;;;5070651;28;20052;-77
2024/01/13 03:54:40;;;;;;;7.60;2.47;;;4.00;99.90;;;;;;5070650;28;20074;-77
2024/01/13 03:57:06;;;;;;;5.00;2.38;;;3.60;99.90;;;;;;5070828;28;20599;-77
2024/01/13 03:59:31;;;;;;;12.65;2.95;;;3.60;99.90;;;;;;5072053;28;20039;-77
2024/01/13 04:01:57;;;;;;;11.05;2.53;;;3.60;99.90;;;;;;5068848;28;20404;-77
2024/01/13 04:04:23;;;;;;;7.47;2.70;;;3.60;99.90;;;;;;5058168;28;20064;-77
2024/01/13 04:06:48;;;;;;;7.88;2.33;;;3.70;99.90;;;;;;5071758;28;20139;-77
2024/01/13 04:09:14;;;;;;;7.38;2.40;;;3.60;99.90;;;;;;5054070;28;20086;-77
2024/01/13 04:11:40;;;;;;;6.65;2.50;;;3.70;99.90;;;;;;5070200;28;20051;-77
2024/01/13 04:14:05;;;;;;;9.02;2.63;;;3.60;99.90;;;;;;5069830;28;20083;-77
2024/01/13 04:16:31;;;;;;;6.97;2.70;;;3.80;99.90;;;;;;5071282;28;20354;-76
2024/01/13 04:18:57;;;;;;;4.88;2.40;;;3.70;99.90;;;;;;5070779;28;20484;-76
2024/01/13 04:21:22;;;;;;;9.73;2.90;;;3.60;99.90;;;;;;5071431;28;20529;-76
2024/01/13 04:23:48;;;;;;;7.78;2.33;;;3.70;99.90;;;;;;5070380;28;20109;-76
2024/01/13 04:26:14;;;;;;;7.07;2.33;;;3.60;99.90;;;;;;5053567;28;20094;-76
2024/01/13 04:28:40;;;;;;;9.18;2.63;;;3.60;99.90;;;;;;5070763;28;20040;-77
2024/01/13 04:31:07;;;;;;;8.48;3.10;;;3.60;99.90;;;;;;5071608;28;20083;-77
2024/01/13 04:33:32;;;;;;;7.85;2.53;;;3.60;99.90;;;;;;5070843;28;20120;-77
2024/01/13 04:35:58;;;;;;;5.05;2.72;;;3.60;99.90;;;;;;5070925;28;20127;-77
2024/01/13 04:38:24;;;;;;;6.80;3.00;;;3.60;99.90;;;;;;5069827;28;20037;-77
2024/01/13 04:40:49;;;;;;;10.07;2.88;;;3.60;99.90;;;;;;5069274;28;20044;-77
2024/01/13 04:43:15;;;;;;;6.78;3.03;;;3.60;99.90;;;;;;5057918;28;20056;-77
2024/01/13 04:45:41;;;;;;;6.25;2.67;;;3.70;99.90;;;;;;5102325;28;20059;-77
2024/01/13 04:48:07;;;;;;;8.43;3.30;;;3.70;99.90;;;;;;5054059;28;20048;-77
2024/01/13 04:50:33;;;;;;;6.40;2.85;;;3.60;99.90;;;;;;5053017;28;20036;-76
2024/01/13 04:52:59;;;;;;;8.15;3.22;;;3.60;99.90;;;;;;5070159;28;20195;-77
2024/01/13 04:55:25;;;;;;;5.30;2.42;;;3.70;99.90;;;;;;5070301;28;20494;-77
2024/01/13 04:57:50;;;;;;;10.35;3.28;;;3.80;99.90;;;;;;5053403;28;20032;-77
2024/01/13 05:00:16;;;;;;;5.78;3.10;;;3.70;99.90;;;;;;5070280;28;20048;-77
2024/01/13 05:02:42;;;;;;;7.20;2.97;;;3.60;99.90;;;;;;5069870;28;20052;-77
2024/01/13 05:05:08;;;;;;;7.10;2.83;;;3.60;99.90;;;;;;5050337;28;20033;-77
2024/01/13 05:07:36;;;;;;;9.18;3.47;;;3.60;99.90;;;;;;5071091;28;20076;-77
2024/01/13 05:10:04;;;;;;;7.07;3.00;;;3.60;99.90;;;;;;5070444;28;20044;-77
2024/01/13 05:12:29;;;;;;;5.85;3.00;;;3.60;99.90;;;;;;5068838;28;20147;-76
2024/01/13 05:14:55;;;;;;;6.80;3.45;;;3.60;99.90;;;;;;5053414;28;20607;-77
2024/01/13 05:17:21;;;;;;;8.90;3.17;;;3.80;99.90;;;;;;5069845;28;20051;-76
2024/01/13 05:19:46;;;;;;;9.65;3.20;;;3.60;99.90;;;;;;5069729;28;20040;-77
2024/01/13 05:22:12;;;;;;;6.15;2.85;;;3.60;99.90;;;;;;5070007;28;20128;-76
2024/01/13 05:24:38;;;;;;;8.15;2.63;;;3.60;99.90;;;;;;5070808;28;20194;-76
2024/01/13 05:27:04;;;;;;;5.38;2.83;;;3.60;99.90;;;;;;5057054;28;20094;-77
2024/01/13 05:29:29;;;;;;;8.43;2.72;;;3.60;99.90;;;;;;5074387;28;20036;-76
2024/01/13 05:31:55;;;;;;;6.88;2.95;;;3.60;99.90;;;;;;5072841;28;20071;-76
2024/01/13 05:34:21;;;;;;;5.57;3.10;;;3.60;99.90;;;;;;5108096;28;20041;-76
2024/01/13 05:36:47;;;;;;;6.70;2.85;;;3.60;99.90;;;;;;5087352;28;20033;-77
2024/01/13 05:39:13;;;;;;;7.10;2.75;;;3.60;99.90;;;;;;5048520;28;20478;-76
2024/01/13 05:41:39;;;;;;;8.32;3.13;;;3.60;99.90;;;;;;5062059;28;20032;-76
2024/01/13 05:44:04;;;;;;;7.68;3.30;;;3.70;99.90;;;;;;5059983;28;20044;-76
2024/01/13 05:46:30;;;;;;;8.77;3.20;;;3.60;99.90;;;;;;5069972;28;20041;-77
2024/01/13 05:48:56;;;;;;;6.80;3.00;;;3.60;99.90;;;;;;5036877;28;20053;-77
2024/01/13 05:51:22;;;;;;;5.90;3.08;;;3.60;99.90;;;;;;5054473;28;20081;-77
2024/01/13 05:53:47;;;;;;;5.85;2.40;;;3.60;99.90;;;;;;5055371;28;20435;-77
2024/01/13 05:56:13;;;;;;;5.75;2.65;;;3.70;99.90;;;;;;5070326;28;20119;-77
2024/01/13 05:58:41;;;;;;;5.85;2.53;;;3.80;99.90;;;;;;5052853;28;20044;-78
2024/01/13 06:01:07;;;;;;;6.20;2.55;;;3.60;99.90;;;;;;5052996;28;20132;-77
2024/01/13 06:03:33;;;;;;;5.93;2.60;;;3.70;99.90;;;;;;5072689;28;20195;-76
2024/01/13 06:05:58;;;;;;;8.32;2.40;;;3.60;99.90;;;;;;5073136;28;20049;-77
2024/01/13 06:08:24;;;;;;;5.05;2.35;;;3.60;99.90;;;;;;5074474;28;20519;-77
2024/01/13 06:10:51;;;;;;;5.10;2.45;;;3.60;99.90;;;;;;5072682;28;20052;-76
2024/01/13 06:13:16;;;;;;;4.55;2.40;;;3.60;99.90;;;;;;5072999;28;20075;-77
2024/01/13 06:15:42;;;;;;;6.35;2.50;;;3.60;99.90;;;;;;5072509;28;20089;-76
2024/01/13 06:18:08;;;;;;;3.88;2.30;;;3.60;99.90;;;;;;5055650;28;20072;-77
2024/01/13 06:20:33;;;;;;;4.35;2.35;;;3.60;99.90;;;;;;5036373;28;20112;-77
2024/01/13 06:22:59;;;;;;;5.15;2.33;;;3.60;99.90;;;;;;5065443;28;20045;-77
2024/01/13 06:25:25;;;;;;;3.97;2.28;;;3.60;99.90;;;;;;5071882;28;20040;-77
2024/01/13 06:27:50;;;;;;;4.95;2.47;;;3.60;99.90;;;;;;5073403;28;20362;-76
2024/01/13 06:30:16;;;;;;;6.32;2.53;;;3.60;99.90;;;;;;5072740;28;20055;-76
2024/01/13 06:32:42;;;;;;;6.10;2.17;;;3.60;99.90;;;;;;5055273;28;20040;-78
2024/01/13 06:35:08;;;;;;;7.82;2.75;;;3.80;99.90;;;;;;5057573;28;20120;-76
2024/01/13 06:37:33;;;;;;;5.85;2.25;;;3.70;99.90;;;;;;5054879;28;20032;-76
2024/01/13 06:39:59;;;;;;;7.72;2.40;;;3.60;99.90;;;;;;5071666;28;20045;-76
2024/01/13 06:42:25;;;;;;;5.40;2.30;;;3.70;99.90;;;;;;5072491;28;20040;-77
2024/01/13 06:44:51;;;;;;;7.80;2.53;;;3.70;99.90;;;;;;5073007;28;20451;-77
2024/01/13 06:47:17;;;;;;;5.18;2.25;;;3.70;99.90;;;;;;5072510;28;20352;-77
2024/01/13 06:49:43;;;;;;;3.47;2.20;;;3.70;99.90;;;;;;5071630;28;20195;-77
2024/01/13 06:52:09;;;;;;;5.63;2.08;;;3.70;99.90;;;;;;5072024;28;20410;-76
2024/01/13 06:54:36;;;;;;;3.35;1.80;;;3.70;99.90;;;;;;5073361;28;20040;-77
2024/01/13 06:57:01;;;;;;;4.43;1.92;;;3.70;99.90;;;;;;5070973;28;20052;-76
2024/01/13 06:59:27;;;;;;;5.78;1.80;;;3.70;99.90;;;;;;5072866;28;20042;-76
2024/01/13 07:01:53;;;;;;;3.53;1.65;;;3.70;99.90;;;;;;5071421;28;20051;-76
2024/01/13 07:04:19;;;;;;;2.88;1.65;;;3.70;99.90;;;;;;5059318;28;20045;-76
2024/01/13 07:06:45;;;;;;;5.15;1.95;;;3.60;99.90;;;;;;5099232;28;20049;-76
2024/01/13 07:09:10;;;;;;;5.05;1.60;;;3.70;99.90;;;;;;5070992;28;20080;-76
2024/01/13 07:11:36;;;;;;;4.00;1.70;;;3.70;99.90;;;;;;5071978;28;20052;-77
2024/01/13 07:14:02;;;;;;;5.53;1.52;;;3.70;99.90;;;;;;5071831;28;20472;-77
2024/01/13 07:16:28;;;;;;;1.75;1.30;;;3.70;99.90;;;;;;5073001;28;20040;-77
2024/01/13 07:18:53;;;;;;;3.30;1.83;;;3.80;99.90;;;;;;5071872;28;20062;-77
2024/01/13 07:21:19;;;;;;;3.17;1.90;;;3.80;99.90;;;;;;5071153;28;20044;-77
2024/01/13 07:23:45;;;;;;;2.88;1.70;;;3.70;99.90;;;;;;5050272;28;20044;-77
2024/01/13 07:26:11;;;;;;;4.10;1.83;;;3.80;99.90;;;;;;5070857;28;20061;-77
2024/01/13 07:28:37;;;;;;;5.38;1.80;;;3.70;99.90;;;;;;5070271;28;20048;-77
2024/01/13 07:31:02;;;;;;;2.97;1.90;;;3.70;99.90;;;;;;5059460;28;20045;-77
2024/01/13 07:33:28;;;;;;;5.03;2.33;;;3.70;99.90;;;;;;5064673;28;20040;-77
2024/01/13 07:35:54;;;;;;;7.88;2.72;;;3.80;99.90;;;;;;5054979;28;20040;-78
2024/01/13 07:38:19;;;;;;;5.20;2.95;;;3.70;99.90;;;;;;5066933;28;20036;-77
2024/01/13 07:40:46;;;;;;;5.38;2.78;;;3.80;99.90;;;;;;5061342;28;20040;-78
2024/01/13 07:43:12;;;;;;;6.35;2.97;;;3.70;99.90;;;;;;5055698;28;20113;-77
2024/01/13 07:45:38;;;;;;;8.73;3.65;;;3.80;99.90;;;;;;5051506;28;20041;-77
2024/01/13 07:48:04;;;;;;;9.45;4.57;;;3.80;99.90;;;;;;5083845;28;20442;-78
2024/01/13 07:50:30;;;;;;;12.25;5.85;;;3.70;99.90;;;;;;5065259;28;20110;-78
2024/01/13 07:52:56;;;;;;;13.98;7.15;;;3.70;99.90;;;;;;5062652;28;20033;-78
2024/01/13 07:55:21;;;;;;;15.70;6.88;;;3.70;99.90;;;;;;5051053;28;20499;-77
2024/01/13 07:57:47;;;;;;;16.48;8.27;;;3.80;99.90;;;;;;5051052;28;20440;-76
2024/01/13 08:00:13;;;;;;;20.08;8.23;;;3.80;99.90;;;;;;5068363;28;20045;-76
2024/01/13 08:02:39;;;;;;;14.88;8.57;;;3.80;99.90;;;;;;5063111;28;20382;-76
2024/01/13 08:05:05;;;;;;;15.55;8.45;;;3.80;99.90;;;;;;5099462;28;20048;-76
2024/01/13 08:07:30;;;;;;;18.02;10.10;;;3.80;99.90;;;;;;5054348;28;20450;-76
2024/01/13 08:09:56;;;;;;;19.95;11.00;;;3.80;99.90;;;;;;5070108;28;20086;-77
2024/01/13 08:12:22;;;;;;;28.27;13.25;;;3.80;99.90;;;;;;5065194;28;20047;-76
2024/01/13 08:14:47;;;;;;;23.48;12.65;;;3.80;99.90;;;;;;5070421;28;20048;-77
2024/01/13 08:17:13;;;;;;;23.58;13.90;;;3.80;99.90;;;;;;5053693;28;20052;-77
2024/01/13 08:19:39;;;;;;;25.27;14.00;;;3.80;99.90;;;;;;5053772;28;20111;-77
2024/01/13 08:22:06;;;;;;;27.73;13.98;;;3.80;99.90;;;;;;5069809;28;20119;-76
2024/01/13 08:24:32;;;;;;;33.53;14.15;;;3.80;99.90;;;;;;5070481;28;20156;-77
2024/01/13 08:26:58;;;;;;;26.20;14.60;;;3.80;99.90;;;;;;5071430;28;20125;-77
2024/01/13 08:29:23;;;;;;;30.70;15.57;;;3.80;99.90;;;;;;5070095;28;20052;-76
2024/01/13 08:31:50;;;;;;;28.10;14.82;;;3.80;99.90;;;;;;5059618;28;20115;-76
2024/01/13 08:34:16;;;;;;;30.52;15.85;;;3.80;99.90;;;;;;5043380;28;20044;-76
2024/01/13 08:36:42;;;;;;;28.02;16.30;;;3.80;99.90;;;;;;5046442;28;20102;-77
2024/01/13 08:39:08;;;;;;;28.48;15.07;;;3.80;99.90;;;;;;5036906;28;20045;-76
2024/01/13 08:41:34;;;;;;;34.10;17.80;;;3.90;99.90;;;;;;5054652;28;20052;-76
2024/01/13 08:44:00;;;;;;;38.08;20.20;;;3.90;99.90;;;;;;5059193;28;20127;-77
2024/01/13 08:46:26;;;;;;;36.92;22.55;;;3.90;99.90;;;;;;5060194;28;20111;-76
2024/01/13 08:48:52;;;;;;;41.97;23.10;;;3.90;99.90;;;;;;5031617;28;20045;-76
2024/01/13 08:51:18;;;;;;;42.85;23.98;;;3.90;99.90;;;;;;5051325;28;20048;-77
2024/01/13 08:53:45;;;;;;;52.63;26.80;;;4.10;99.90;;;;;;5054026;28;20043;-77
2024/01/13 08:56:11;;;;;;;56.80;29.45;;;3.90;99.90;;;;;;5056010;28;20448;-77
2024/01/13 08:58:38;;;;;;;51.65;28.40;;;3.90;99.90;;;;;;5084014;28;20041;-77
2024/01/13 09:01:04;;;;;;;62.78;27.08;;;3.90;99.90;;;;;;5070709;28;20107;-77
2024/01/13 09:03:30;;;;;;;51.88;29.50;;;4.00;99.90;;;;;;5063805;28;20041;-77
2024/01/13 09:05:56;;;;;;;55.80;32.38;;;4.00;99.90;;;;;;5069724;28;20139;-79
2024/01/13 09:08:23;;;;;;;56.78;31.88;;;4.00;99.90;;;;;;5064282;28;20106;-77
2024/01/13 09:10:49;;;;;;;56.15;31.95;;;4.00;99.90;;;;;;5053998;28;20052;-77
2024/01/13 09:13:14;;;;;;;47.50;28.70;;;4.00;99.90;;;;;;5044108;28;20040;-76
2024/01/13 09:15:40;;;;;;;53.17;30.17;;;4.00;99.90;;;;;;5072957;28;20056;-76
2024/01/13 09:18:08;;;;;;;51.00;27.95;;;4.10;99.90;;;;;;5067980;28;20382;-77
2024/01/13 09:20:33;;;;;;;48.95;29.75;;;4.00;99.90;;;;;;5053354;28;20040;-75
2024/01/13 09:22:59;;;;;;;54.58;29.42;;;4.00;99.90;;;;;;5060267;28;20204;-77
2024/01/13 09:25:25;;;;;;;50.85;30.05;;;4.00;99.90;;;;;;5062641;28;20402;-76
2024/01/13 09:27:52;;;;;;;49.75;29.95;;;4.00;99.90;;;;;;5067914;28;20461;-76
2024/01/13 09:30:17;;;;;;;53.03;29.15;;;4.00;99.90;;;;;;5064417;28;20047;-76
2024/01/13 09:32:43;;;;;;;54.30;30.90;;;4.10;99.90;;;;;;5088803;28;20322;-76
2024/01/13 09:35:09;;;;;;;51.05;29.60;;;4.10;99.90;;;;;;5046423;28;20110;-77
2024/01/13 09:37:35;;;;;;;54.47;32.05;;;4.10;99.90;;;;;;5063974;28;20106;-76
2024/01/13 09:40:01;;;;;;;55.88;32.65;;;4.10;99.90;;;;;;5054172;28;20052;-76
2024/01/13 09:42:35;;;;;;;52.55;30.17;;;4.10;99.90;;;;;;5067638;28;20037;-76
2024/01/13 09:45:01;;;;;;;55.78;32.03;;;4.10;99.90;;;;;;5091434;28;20053;-75
2024/01/13 09:47:27;;;;;;;59.88;32.55;;;4.10;99.90;;;;;;5061462;28;20032;-77
2024/01/13 09:49:53;;;;;;;57.35;32.47;;;4.10;99.90;;;;;;5056571;28;20071;-76
2024/01/13 09:52:20;;;;;;;57.00;31.67;;;4.10;99.90;;;;;;5053137;28;20047;-76
2024/01/13 09:54:50;;;;;;;58.95;31.35;;;4.10;99.90;;;;;;5064906;28;20072;-77
2024/01/13 09:57:17;;;;;;;54.13;32.67;;;4.10;99.90;;;;;;5062737;28;20045;-77
2024/01/13 09:59:42;;;;;;;57.47;33.38;;;4.10;99.90;;;;;;5072893;28;20054;-75
2024/01/13 10:02:12;;;;;;;57.25;33.05;;;4.10;99.90;;;;;;5072971;28;20052;-76
2024/01/13 10:04:38;;;;;;;56.90;33.30;;;4.30;99.90;;;;;;5059665;28;20059;-76
2024/01/13 10:07:05;;;;;;;52.38;32.08;;;4.10;99.90;;;;;;5074397;28;20115;-76
2024/01/13 10:09:31;;;;;;;55.88;31.38;;;4.10;99.90;;;;;;5071875;28;20049;-77
2024/01/13 10:11:57;;;;;;;59.05;35.13;;;4.40;99.90;;;;;;5072474;28;20048;-77
2024/01/13 10:14:24;;;;;;;58.95;31.40;;;4.20;99.90;;;;;;5035860;28;20041;-81
2024/01/13 10:16:49;;;;;;;54.97;33.40;;;4.20;99.90;;;;;;5069595;28;20044;-77
2024/01/13 10:19:15;;;;;;;51.45;31.60;;;4.20;99.90;;;;;;5063628;28;20051;-82
2024/01/13 10:21:41;;;;;;;52.25;31.80;;;4.20;99.90;;;;;;5060871;28;20036;-82
2024/01/13 10:24:07;;;;;;;55.60;31.30;;;4.40;99.90;;;;;;5052584;28;20040;-82
2024/01/13 10:26:33;;;;;;;53.65;30.00;;;4.40;99.90;;;;;;5052258;28;20467;-79
2024/01/13 10:28:59;;;;;;;52.17;30.80;;;4.40;99.90;;;;;;5053139;28;20041;-78
2024/01/13 10:31:25;;;;;;;45.85;29.35;;;4.70;99.90;;;;;;5083309;28;20043;-77
2024/01/13 10:33:52;;;;;;;52.00;29.80;;;4.40;99.90;;;;;;5050017;28;20064;-78
2024/01/13 10:36:24;;;;;;;50.53;27.98;;;4.40;99.90;;;;;;5071406;28;20540;-78
2024/01/13 10:38:55;;;;;;;51.92;28.42;;;4.60;99.90;;;;;;5054869;28;20041;-77
2024/01/13 10:41:25;;;;;;;48.17;27.60;;;4.50;99.90;;;;;;5054382;28;20036;-78
2024/01/13 10:43:58;;;;;;;49.30;28.02;;;4.50;99.90;;;;;;5067262;28;20057;-79
2024/01/13 10:46:25;;;;;;;46.63;28.00;;;4.50;99.90;;;;;;5069105;28;20454;-81
2024/01/13 10:48:59;;;;;;;51.55;27.63;;;4.50;99.90;;;;;;5057074;28;20120;-84
2024/01/13 10:51:35;;;;;;;48.40;26.98;;;4.40;99.90;;;;;;5070586;28;20428;-82
2024/01/13 10:54:03;;;;;;;44.42;23.83;;;4.40;99.90;;;;;;5072209;28;20325;-84
2024/01/13 10:56:29;;;;;;;44.22;25.35;;;4.40;99.90;;;;;;5072808;28;20048;-85
2024/01/13 10:58:57;;;;;;;42.75;23.70;;;4.50;99.90;;;;;;5059010;28;20087;-83
2024/01/13 11:01:23;;;;;;;37.45;22.95;;;4.50;99.90;;;;;;5066034;28;20405;-85
2024/01/13 11:03:50;;;;;;;37.55;20.55;;;4.50;99.90;;;;;;5051979;28;20080;-85
2024/01/13 11:06:16;;;;;;;35.58;20.10;;;4.50;99.90;;;;;;5067047;28;20124;-85
2024/01/13 11:08:44;;;;;;;34.65;18.80;;;4.60;99.90;;;;;;5071632;28;20115;-84
2024/01/13 11:11:12;;;;;;;33.50;17.63;;;4.60;99.90;;;;;;5071810;28;20055;-85
2024/01/13 11:13:56;;;;;;;30.10;16.75;;;4.60;99.90;;;;;;5101853;28;20040;-84
2024/01/13 11:16:24;;;;;;;35.33;16.53;;;4.60;99.90;;;;;;5068593;28;20124;-83
2024/01/13 11:18:52;;;;;;;26.80;14.95;;;4.60;99.90;;;;;;5054720;28;20084;-85
2024/01/13 11:21:17;;;;;;;25.52;13.73;;;4.60;99.90;;;;;;5052577;28;20049;-84
2024/01/13 11:23:57;;;;;;;28.70;14.35;;;4.70;99.90;;;;;;5058997;28;20045;-85
2024/01/13 11:26:42;;;;;;;23.88;14.20;;;4.70;99.90;;;;;;5054813;28;20072;-84
2024/01/13 11:29:25;;;;;;;27.55;13.90;;;4.60;99.90;;;;;;5051985;28;20048;-84
2024/01/13 11:31:55;;;;;;;24.60;12.57;;;4.70;99.90;;;;;;5040039;28;20542;-79
2024/01/13 11:34:22;;;;;;;26.98;13.60;;;4.60;99.90;;;;;;5064258;28;20068;-82
2024/01/13 11:36:50;;;;;;;26.73;13.98;;;4.70;99.90;;;;;;5054410;28;20086;-81
2024/01/13 11:39:18;;;;;;;21.90;11.27;;;4.70;99.90;;;;;;5065553;28;20052;-81
2024/01/13 11:41:55;;;;;;;24.80;12.27;;;4.70;99.90;;;;;;5057855;28;20044;-82
2024/01/13 11:44:42;;;;;;;22.17;12.85;;;4.70;99.90;;;;;;5088023;28;20041;-83
2024/01/13 11:47:09;;;;;;;21.35;11.10;;;4.70;99.90;;;;;;5071275;28;20036;-84
2024/01/13 11:49:40;;;;;;;24.42;10.88;;;4.80;99.90;;;;;;5072850;28;20040;-83
2024/01/13 11:52:07;;;;;;;19.27;10.23;;;4.80;99.90;;;;;;5067295;28;20044;-82
2024/01/13 11:54:34;;;;;;;20.90;9.40;;;4.80;99.90;;;;;;5055541;28;20036;-76
2024/01/13 11:57:03;;;;;;;21.95;10.65;;;4.80;99.90;;;;;;5069551;28;20045;-82
2024/01/13 11:59:29;;;;;;;21.70;10.98;;;4.80;99.90;;;;;;5071812;28;20382;-82
2024/01/13 12:01:56;;;;;;;20.77;10.25;;;4.90;99.90;;;;;;5069650;28;20046;-82
2024/01/13 12:04:24;;;;;;;19.40;9.15;;;4.80;99.90;;;;;;5057773;28;20094;-83
2024/01/13 12:06:53;;;;;;;21.55;10.07;;;4.80;99.90;;;;;;5070972;28;20123;-83
2024/01/13 12:09:24;;;;;;;18.98;9.77;;;4.90;99.90;;;;;;5069892;28;20045;-84
2024/01/13 12:11:55;;;;;;;18.63;8.60;;;4.90;99.90;;;;;;5064683;28;20483;-83
2024/01/13 12:14:28;;;;;;;21.15;8.30;;;4.90;99.90;;;;;;5052114;28;20087;-80
2024/01/13 12:16:56;;;;;;;16.90;8.77;;;4.90;99.90;;;;;;5057516;28;20128;-80
2024/01/13 12:19:23;;;;;;;15.23;8.98;;;5.00;99.90;;;;;;5068707;28;20052;-80
2024/01/13 12:21:49;;;;;;;18.60;8.52;;;4.90;99.90;;;;;;5050219;28;20041;-81
2024/01/13 12:24:15;;;;;;;17.23;8.02;;;5.00;99.90;;;;;;5065934;28;20045;-80
2024/01/13 12:26:41;;;;;;;11.35;7.00;;;5.00;99.90;;;;;;5086364;28;20060;-80
2024/01/13 12:29:08;;;;;;;14.55;7.72;;;5.00;99.90;;;;;;5049541;28;20122;-81
2024/01/13 12:31:34;;;;;;;14.32;6.75;;;5.00;99.90;;;;;;5054436;28;20044;-80
2024/01/13 12:34:14;;;;;;;14.05;7.45;;;5.00;99.90;;;;;;5068486;28;20043;-81
2024/01/13 12:36:40;;;;;;;10.98;6.03;;;5.00;99.90;;;;;;5058536;28;20124;-81
2024/01/13 12:39:15;;;;;;;10.98;5.97;;;4.50;99.90;;;;;;5068084;28;20041;-81
2024/01/13 12:41:41;;;;;;;13.35;5.57;;;5.00;99.90;;;;;;5055029;28;20061;-81
2024/01/13 12:44:07;;;;;;;9.20;4.57;;;5.10;99.90;;;;;;5051815;28;20372;-81